Time;durP1;ratioP1;P1;durP2;ratioP2;P2;SDS_P1;SDS_P2;PMS_P1;PMS_P2;Temp;Humidity;BMP_temperature;BMP_pressure;BME280_temperature;BME280_humidity;BME280_pressure;Samples;Min_cycle;Max_cycle;Signal;HPM_P1;HPM_P2
2023/08/09 00:00:48;;;;;;;1.48;0.85;;;13.40;99.90;;;;;;5047678;28;20059;-69
2023/08/09 00:03:14;;;;;;;5.45;0.88;;;13.40;99.90;;;;;;5041396;28;20554;-69
2023/08/09 00:05:40;;;;;;;3.15;0.82;;;13.30;99.90;;;;;;5055038;28;20456;-69
2023/08/09 00:08:08;;;;;;;4.72;0.70;;;13.30;99.90;;;;;;5041677;28;21235;-69
2023/08/09 00:10:34;;;;;;;2.20;0.85;;;13.30;99.90;;;;;;5063882;28;20062;-69
2023/08/09 00:13:00;;;;;;;3.50;0.85;;;13.30;99.90;;;;;;5063559;28;20044;-68
2023/08/09 00:15:26;;;;;;;4.47;0.95;;;13.30;99.90;;;;;;5041658;28;20033;-69
2023/08/09 00:17:52;;;;;;;2.08;0.63;;;13.20;99.90;;;;;;5054657;28;20045;-69
2023/08/09 00:20:17;;;;;;;1.52;0.70;;;13.20;99.90;;;;;;5064418;28;20045;-69
2023/08/09 00:22:43;;;;;;;4.45;1.55;;;13.30;99.90;;;;;;5026054;28;20625;-69
2023/08/09 00:25:13;;;;;;;2.50;0.85;;;13.20;99.90;;;;;;5063551;28;20083;-69
2023/08/09 00:27:39;;;;;;;4.40;0.70;;;13.20;99.90;;;;;;5047506;28;20421;-69
2023/08/09 00:30:08;;;;;;;1.73;0.80;;;13.20;99.90;;;;;;5060908;28;20299;-69
2023/08/09 00:32:34;;;;;;;4.05;0.93;;;13.20;99.90;;;;;;5061143;28;20130;-69
2023/08/09 00:34:59;;;;;;;3.30;0.90;;;13.10;99.90;;;;;;5045386;28;20071;-69
2023/08/09 00:37:26;;;;;;;2.90;0.65;;;13.10;99.90;;;;;;5064621;28;20123;-69
2023/08/09 00:39:52;;;;;;;1.50;0.70;;;13.10;99.90;;;;;;5062187;28;20045;-69
2023/08/09 00:42:18;;;;;;;3.85;1.00;;;13.10;99.90;;;;;;5061569;28;20120;-69
2023/08/09 00:44:43;;;;;;;1.85;0.80;;;13.10;99.90;;;;;;5064555;28;20326;-69
2023/08/09 00:47:10;;;;;;;2.97;0.70;;;13.00;99.90;;;;;;5044213;28;20045;-69
2023/08/09 00:49:36;;;;;;;2.00;0.93;;;13.00;99.90;;;;;;5042209;28;20072;-69
2023/08/09 00:52:03;;;;;;;;;;;13.00;99.90;;;;;;5066123;28;20123;-69
2023/08/09 00:54:29;;;;;;;5.88;1.00;;;13.00;99.90;;;;;;5066037;28;19943;-69
2023/08/09 00:56:55;;;;;;;3.35;1.20;;;12.90;99.90;;;;;;5065049;28;20464;-69
2023/08/09 00:59:21;;;;;;;1.98;0.77;;;12.90;99.90;;;;;;5061204;28;20044;-69
2023/08/09 01:01:47;;;;;;;5.20;0.90;;;12.90;99.90;;;;;;5060109;28;20451;-68
2023/08/09 01:04:13;;;;;;;2.70;0.80;;;12.90;99.90;;;;;;5048607;28;20048;-69
2023/08/09 01:07:06;;;;;;;2.83;1.08;;;12.80;99.90;;;;;;5057035;28;20106;-69
2023/08/09 01:09:53;;;;;;;1.35;0.85;;;12.80;99.90;;;;;;5062459;28;20052;-69
2023/08/09 01:12:26;;;;;;;2.17;1.02;;;12.80;99.90;;;;;;5050657;28;20036;-69
2023/08/09 01:14:54;;;;;;;2.13;1.40;;;12.80;99.90;;;;;;5064933;28;20067;-69
2023/08/09 01:17:21;;;;;;;2.17;1.15;;;12.80;99.90;;;;;;5063835;28;20044;-68
2023/08/09 01:19:54;;;;;;;2.55;0.70;;;12.70;99.90;;;;;;5047423;28;20033;-69
2023/08/09 01:22:31;;;;;;;3.65;1.33;;;12.70;99.90;;;;;;5038365;28;20275;-68
2023/08/09 01:25:06;;;;;;;;;;;12.70;99.90;;;;;;5024891;28;20449;-68
2023/08/09 01:27:33;;;;;;;2.30;1.00;;;12.70;99.90;;;;;;5060416;28;19939;-68
2023/08/09 01:30:03;;;;;;;3.15;0.80;;;12.60;99.90;;;;;;5035151;28;20044;-69
2023/08/09 01:32:34;;;;;;;1.95;0.85;;;12.60;99.90;;;;;;5044953;28;20402;-69
2023/08/09 01:35:00;;;;;;;2.97;0.80;;;12.60;99.90;;;;;;5061442;28;20040;-68
2023/08/09 01:37:55;;;;;;;2.90;0.93;;;12.60;99.90;;;;;;5063076;28;20510;-68
2023/08/09 01:40:21;;;;;;;1.73;0.77;;;12.60;99.90;;;;;;5038438;28;20059;-69
2023/08/09 01:42:47;;;;;;;3.53;0.70;;;12.50;99.90;;;;;;5046894;28;20044;-68
2023/08/09 01:45:13;;;;;;;2.88;0.90;;;12.50;99.90;;;;;;5045507;28;20068;-69
2023/08/09 01:47:41;;;;;;;2.17;1.02;;;12.50;99.90;;;;;;5043850;28;20111;-69
2023/08/09 01:50:19;;;;;;;5.30;0.82;;;12.50;99.90;;;;;;5037092;28;20068;-69
2023/08/09 01:52:46;;;;;;;2.55;0.70;;;12.50;99.90;;;;;;5041853;28;20040;-69
2023/08/09 01:55:17;;;;;;;;;;;12.50;99.90;;;;;;5058996;28;20115;-69
2023/08/09 01:57:47;;;;;;;3.08;0.80;;;12.40;99.90;;;;;;5025114;28;20290;-69
2023/08/09 02:00:19;;;;;;;2.22;0.95;;;12.40;99.90;;;;;;5044372;28;20127;-69
2023/08/09 02:02:51;;;;;;;2.80;0.85;;;12.40;99.90;;;;;;5056852;28;20498;-69
2023/08/09 02:05:18;;;;;;;3.55;0.77;;;12.30;99.90;;;;;;5046314;28;20076;-69
2023/08/09 02:07:44;;;;;;;3.05;0.73;;;12.30;99.90;;;;;;5058254;28;20040;-70
2023/08/09 02:10:10;;;;;;;4.57;0.85;;;12.30;99.90;;;;;;5025169;28;20374;-69
2023/08/09 02:12:37;;;;;;;2.03;0.70;;;12.30;99.90;;;;;;5038574;28;20045;-69
2023/08/09 02:15:04;;;;;;;5.38;1.08;;;12.30;99.90;;;;;;5062743;28;20044;-70
2023/08/09 02:17:31;;;;;;;1.67;0.70;;;12.30;99.90;;;;;;5048895;28;20635;-70
2023/08/09 02:19:58;;;;;;;;;;;12.20;99.90;;;;;;5063267;28;20071;-69
2023/08/09 02:22:25;;;;;;;3.42;0.73;;;12.20;99.90;;;;;;5061415;28;19942;-69
2023/08/09 02:24:51;;;;;;;2.92;1.00;;;12.20;99.90;;;;;;5060617;28;20070;-70
2023/08/09 02:27:20;;;;;;;1.95;1.08;;;12.20;99.90;;;;;;5060499;28;20044;-69
2023/08/09 02:29:46;;;;;;;3.25;0.68;;;12.20;99.90;;;;;;5041736;28;20044;-69
2023/08/09 02:32:12;;;;;;;1.63;0.80;;;12.20;99.90;;;;;;5063397;28;20055;-69
2023/08/09 02:34:37;;;;;;;2.25;1.08;;;12.10;99.90;;;;;;5036147;28;20491;-70
2023/08/09 02:37:04;;;;;;;2.60;1.40;;;12.10;99.90;;;;;;5059194;28;20040;-69
2023/08/09 02:39:31;;;;;;;1.00;0.60;;;12.20;99.90;;;;;;5050780;28;20502;-69
2023/08/09 02:42:02;;;;;;;3.28;1.05;;;12.20;99.90;;;;;;5040820;28;20106;-69
2023/08/09 02:44:27;;;;;;;3.45;0.82;;;12.20;99.90;;;;;;5059348;28;20040;-69
2023/08/09 02:46:53;;;;;;;1.65;0.80;;;12.20;99.90;;;;;;5045539;28;20271;-69
2023/08/09 02:49:19;;;;;;;2.83;0.90;;;12.10;99.90;;;;;;5041279;28;20076;-70
2023/08/09 02:51:44;;;;;;;1.90;0.98;;;12.10;99.90;;;;;;5042211;28;20044;-69
2023/08/09 02:54:13;;;;;;;2.43;1.00;;;12.10;99.90;;;;;;5065175;28;20044;-69
2023/08/09 02:56:39;;;;;;;2.78;1.10;;;12.10;99.90;;;;;;5061335;28;20311;-69
2023/08/09 02:59:05;;;;;;;3.10;1.15;;;12.10;99.90;;;;;;5064590;28;20047;-69
2023/08/09 03:01:30;;;;;;;2.33;0.77;;;12.10;99.90;;;;;;5046595;28;20056;-69
2023/08/09 03:03:56;;;;;;;5.13;1.00;;;12.10;99.90;;;;;;5047061;28;20302;-69
2023/08/09 03:06:22;;;;;;;7.33;1.07;;;12.10;99.90;;;;;;5046502;28;20295;-69
2023/08/09 03:08:52;;;;;;;3.70;1.00;;;12.10;99.90;;;;;;5062675;28;20043;-69
2023/08/09 03:11:26;;;;;;;2.35;1.10;;;12.10;99.90;;;;;;5051727;28;20044;-70
2023/08/09 03:13:52;;;;;;;3.38;0.90;;;12.10;99.90;;;;;;5053135;28;20044;-69
2023/08/09 03:16:18;;;;;;;4.72;1.10;;;12.10;99.90;;;;;;5063487;28;20597;-69
2023/08/09 03:18:44;;;;;;;4.72;1.00;;;12.10;99.90;;;;;;5048060;28;20063;-69
2023/08/09 03:21:09;;;;;;;1.70;0.90;;;12.00;99.90;;;;;;5044446;28;20053;-69
2023/08/09 03:23:36;;;;;;;2.30;1.13;;;12.00;99.90;;;;;;5062229;28;20052;-69
2023/08/09 03:26:02;;;;;;;3.03;1.20;;;12.00;99.90;;;;;;5048221;28;20263;-69
2023/08/09 03:28:28;;;;;;;3.05;1.15;;;12.00;99.90;;;;;;5062847;28;20037;-69
2023/08/09 03:30:53;;;;;;;4.47;0.98;;;12.00;99.90;;;;;;5046394;28;20528;-70
2023/08/09 03:33:19;;;;;;;3.10;1.23;;;12.00;99.90;;;;;;5063133;28;20112;-69
2023/08/09 03:35:45;;;;;;;3.72;0.90;;;12.00;99.90;;;;;;5048369;28;20041;-69
2023/08/09 03:38:11;;;;;;;3.47;1.20;;;12.00;99.90;;;;;;5044782;28;20394;-69
2023/08/09 03:40:37;;;;;;;6.20;1.00;;;11.90;99.90;;;;;;5062293;28;20032;-69
2023/08/09 03:43:03;;;;;;;2.20;1.13;;;12.00;99.90;;;;;;5062004;28;20094;-69
2023/08/09 03:45:28;;;;;;;2.35;0.90;;;12.00;99.90;;;;;;5065461;28;20498;-69
2023/08/09 03:47:55;;;;;;;2.03;1.03;;;11.90;99.90;;;;;;5070458;28;20036;-69
2023/08/09 03:50:21;;;;;;;2.70;1.15;;;11.90;99.90;;;;;;5077133;28;20460;-69
2023/08/09 03:52:49;;;;;;;2.80;0.98;;;11.90;99.90;;;;;;5051563;28;20415;-69
2023/08/09 03:55:15;;;;;;;2.70;0.90;;;11.90;99.90;;;;;;5067259;28;20033;-69
2023/08/09 03:57:41;;;;;;;4.80;1.10;;;11.90;99.90;;;;;;5070370;28;20263;-69
2023/08/09 04:00:13;;;;;;;2.92;1.05;;;11.90;99.90;;;;;;5045426;28;20119;-69
2023/08/09 04:02:39;;;;;;;3.90;1.00;;;11.90;99.90;;;;;;5048724;28;20056;-69
2023/08/09 04:05:05;;;;;;;2.10;1.00;;;11.90;99.90;;;;;;5074159;28;20036;-69
2023/08/09 04:07:31;;;;;;;3.35;0.68;;;11.90;99.90;;;;;;5052570;28;20044;-69
2023/08/09 04:09:57;;;;;;;3.03;0.80;;;11.90;99.90;;;;;;5045171;28;20134;-69
2023/08/09 04:12:22;;;;;;;5.07;1.23;;;11.90;99.90;;;;;;5057177;28;20048;-69
2023/08/09 04:14:48;;;;;;;1.23;0.77;;;11.90;99.90;;;;;;5052546;28;20373;-69
2023/08/09 04:17:14;;;;;;;2.93;1.00;;;11.90;99.90;;;;;;5074819;28;20048;-69
2023/08/09 04:19:39;;;;;;;1.70;1.00;;;11.90;99.90;;;;;;5067842;28;20277;-69
2023/08/09 04:22:05;;;;;;;1.93;0.87;;;11.90;99.90;;;;;;5071305;28;20589;-69
2023/08/09 04:24:31;;;;;;;1.97;1.03;;;11.90;99.90;;;;;;5051412;28;20290;-69
2023/08/09 04:26:56;;;;;;;3.25;1.00;;;11.80;99.90;;;;;;5044373;28;20119;-69
2023/08/09 04:29:22;;;;;;;4.28;1.63;;;11.80;99.90;;;;;;5067885;28;20128;-69
2023/08/09 04:31:48;;;;;;;3.65;1.40;;;11.80;99.90;;;;;;5066331;28;20078;-69
2023/08/09 04:34:14;;;;;;;3.58;0.80;;;11.80;99.90;;;;;;5070479;28;20047;-69
2023/08/09 04:36:39;;;;;;;1.90;1.02;;;11.90;99.90;;;;;;5066268;28;20032;-69
2023/08/09 04:39:09;;;;;;;2.20;1.27;;;11.80;99.90;;;;;;5050170;28;20175;-69
2023/08/09 04:41:35;;;;;;;3.00;1.05;;;11.90;99.90;;;;;;5071004;28;20056;-69
2023/08/09 04:44:01;;;;;;;2.88;1.13;;;11.80;99.90;;;;;;5049922;28;20032;-69
2023/08/09 04:46:27;;;;;;;2.97;0.80;;;11.90;99.90;;;;;;5054023;28;20038;-69
2023/08/09 04:48:53;;;;;;;2.97;1.00;;;11.90;99.90;;;;;;5067453;28;20036;-69
2023/08/09 04:51:18;;;;;;;3.78;1.20;;;11.90;99.90;;;;;;5072608;28;20036;-69
2023/08/09 04:53:44;;;;;;;4.63;1.10;;;11.90;99.90;;;;;;5056339;28;20143;-69
2023/08/09 04:56:10;;;;;;;3.28;1.50;;;12.00;99.90;;;;;;5071263;28;20033;-69
2023/08/09 04:58:37;;;;;;;4.13;1.00;;;11.90;99.90;;;;;;5054429;28;20637;-69
2023/08/09 05:01:04;;;;;;;4.60;1.63;;;12.00;99.90;;;;;;5067110;28;20322;-69
2023/08/09 05:03:29;;;;;;;3.22;0.88;;;12.00;99.90;;;;;;5069618;28;20429;-69
2023/08/09 05:05:55;;;;;;;2.17;1.00;;;12.10;99.90;;;;;;5074556;28;20040;-69
2023/08/09 05:08:21;;;;;;;2.83;1.07;;;12.10;99.90;;;;;;5050925;28;20856;-69
2023/08/09 05:10:46;;;;;;;2.17;0.80;;;12.20;99.90;;;;;;5046825;28;20037;-68
2023/08/09 05:13:12;;;;;;;3.05;1.30;;;12.20;99.90;;;;;;5048446;28;20040;-69
2023/08/09 05:15:38;;;;;;;2.35;1.20;;;12.20;99.90;;;;;;5050689;28;20036;-68
2023/08/09 05:18:04;;;;;;;3.45;1.30;;;12.30;99.90;;;;;;5048158;28;20064;-69
2023/08/09 05:20:29;;;;;;;3.10;0.80;;;12.30;99.90;;;;;;5067126;28;20036;-69
2023/08/09 05:22:55;;;;;;;3.43;1.37;;;12.40;99.90;;;;;;5049322;28;20097;-69
2023/08/09 05:25:21;;;;;;;2.78;1.10;;;12.40;99.90;;;;;;5050941;28;20089;-69
2023/08/09 05:27:48;;;;;;;2.75;0.93;;;12.50;99.90;;;;;;5062926;28;20116;-69
2023/08/09 05:30:19;;;;;;;2.30;0.73;;;12.50;99.90;;;;;;5070111;28;20037;-69
2023/08/09 05:32:45;;;;;;;1.67;0.93;;;12.60;99.90;;;;;;5069403;28;20048;-69
2023/08/09 05:35:10;;;;;;;2.58;1.10;;;12.70;99.90;;;;;;5053310;28;20032;-69
2023/08/09 05:37:37;;;;;;;3.60;1.50;;;12.70;99.90;;;;;;5061159;28;20652;-69
2023/08/09 05:40:12;;;;;;;2.85;1.20;;;12.80;99.90;;;;;;5048653;28;20037;-70
2023/08/09 05:42:38;;;;;;;3.95;1.00;;;12.90;99.90;;;;;;5064952;28;20041;-69
2023/08/09 05:45:04;;;;;;;1.40;0.70;;;12.90;99.90;;;;;;5044612;28;20063;-69
2023/08/09 05:47:30;;;;;;;;;;;13.00;99.90;;;;;;5048188;28;20177;-68
2023/08/09 05:49:59;;;;;;;3.72;1.20;;;13.10;99.90;;;;;;5067316;28;20014;-67
2023/08/09 05:52:25;;;;;;;2.70;0.82;;;13.10;99.90;;;;;;5040001;28;20118;-69
2023/08/09 05:54:50;;;;;;;4.13;0.77;;;13.20;99.90;;;;;;5063579;28;20091;-67
2023/08/09 05:57:16;;;;;;;1.67;0.70;;;13.30;99.90;;;;;;5045069;28;20048;-70
2023/08/09 05:59:42;;;;;;;2.88;0.77;;;13.30;99.90;;;;;;5049576;28;20051;-69
2023/08/09 06:02:07;;;;;;;2.00;1.00;;;13.40;99.90;;;;;;5055284;28;20167;-69
2023/08/09 06:04:34;;;;;;;3.80;0.80;;;13.50;99.90;;;;;;5045655;28;20516;-68
2023/08/09 06:06:59;;;;;;;2.65;1.02;;;13.50;99.90;;;;;;5042165;28;20049;-68
2023/08/09 06:09:25;;;;;;;4.38;0.80;;;13.60;99.90;;;;;;5046466;28;20086;-66
2023/08/09 06:11:51;;;;;;;2.33;0.85;;;13.60;99.90;;;;;;5043320;28;20040;-71
2023/08/09 06:14:19;;;;;;;6.07;0.80;;;13.80;99.90;;;;;;5047201;28;20103;-68
2023/08/09 06:16:47;;;;;;;2.45;0.77;;;13.80;99.90;;;;;;5067154;28;20044;-69
2023/08/09 06:19:13;;;;;;;2.92;0.90;;;13.90;99.90;;;;;;5046624;28;20123;-67
2023/08/09 06:21:39;;;;;;;1.77;0.95;;;14.00;99.90;;;;;;5043872;28;20153;-67
2023/08/09 06:24:05;;;;;;;2.92;0.68;;;14.00;99.90;;;;;;5060263;28;20391;-67
2023/08/09 06:26:32;;;;;;;;;;;14.10;99.90;;;;;;5048566;28;20048;-67
2023/08/09 06:29:00;;;;;;;1.70;0.70;;;14.20;99.90;;;;;;5046818;28;20293;-67
2023/08/09 06:31:26;;;;;;;2.00;0.70;;;14.20;99.90;;;;;;5050217;28;20044;-67
2023/08/09 06:33:54;;;;;;;2.95;0.90;;;14.30;99.90;;;;;;5064658;28;20548;-67
2023/08/09 06:36:20;;;;;;;2.20;0.60;;;14.40;99.90;;;;;;5064318;28;20498;-67
2023/08/09 06:38:46;;;;;;;2.70;1.15;;;14.50;99.90;;;;;;5049619;28;20486;-68
2023/08/09 06:41:12;;;;;;;2.88;0.90;;;14.60;99.90;;;;;;5063826;28;20037;-67
2023/08/09 06:43:37;;;;;;;7.10;0.90;;;14.70;99.90;;;;;;5043898;28;20036;-67
2023/08/09 06:46:03;;;;;;;4.75;0.80;;;14.80;99.90;;;;;;5041602;28;20105;-67
2023/08/09 06:48:31;;;;;;;3.00;0.90;;;14.80;99.90;;;;;;5065048;28;20083;-67
2023/08/09 06:50:57;;;;;;;1.67;0.73;;;14.90;99.90;;;;;;5021789;28;20159;-67
2023/08/09 06:53:23;;;;;;;4.20;0.82;;;15.00;99.90;;;;;;5057375;28;20398;-67
2023/08/09 06:55:49;;;;;;;3.08;0.77;;;15.00;99.90;;;;;;5061390;28;20048;-67
2023/08/09 06:58:15;;;;;;;1.85;0.70;;;15.10;99.90;;;;;;5064344;28;20040;-67
2023/08/09 07:00:41;;;;;;;6.80;0.80;;;15.20;99.90;;;;;;5043187;28;20418;-67
2023/08/09 07:03:07;;;;;;;1.60;0.60;;;15.30;99.90;;;;;;5045525;28;20432;-67
2023/08/09 07:05:33;;;;;;;2.58;0.77;;;15.40;99.90;;;;;;5022860;28;20049;-67
2023/08/09 07:07:59;;;;;;;1.83;0.70;;;15.40;99.90;;;;;;5046859;28;20056;-67
2023/08/09 07:10:25;;;;;;;2.05;0.75;;;15.50;99.90;;;;;;5039847;28;20045;-67
2023/08/09 07:12:51;;;;;;;1.55;0.65;;;15.60;99.90;;;;;;5043339;28;20033;-67
2023/08/09 07:15:16;;;;;;;4.28;0.82;;;15.70;99.90;;;;;;5065143;28;20040;-67
2023/08/09 07:17:42;;;;;;;6.85;1.13;;;15.80;99.90;;;;;;5040397;28;20052;-67
2023/08/09 07:20:11;;;;;;;2.75;0.68;;;15.90;99.90;;;;;;5040513;28;20029;-67
2023/08/09 07:22:41;;;;;;;3.17;0.60;;;15.90;99.90;;;;;;5070372;28;20417;-67
2023/08/09 07:25:08;;;;;;;2.13;0.90;;;16.00;99.90;;;;;;5050879;28;20068;-66
2023/08/09 07:27:34;;;;;;;4.53;0.90;;;16.10;99.90;;;;;;5062310;28;20059;-67
2023/08/09 07:30:00;;;;;;;2.33;1.20;;;16.10;99.90;;;;;;5048151;28;20422;-67
2023/08/09 07:32:26;;;;;;;1.92;0.70;;;16.20;99.90;;;;;;5049751;28;20040;-67
2023/08/09 07:34:52;;;;;;;;;;;16.30;99.90;;;;;;5051438;28;20052;-66
2023/08/09 07:37:18;;;;;;;3.45;0.80;;;16.40;99.90;;;;;;5065870;28;19939;-67
2023/08/09 07:39:44;;;;;;;1.25;0.60;;;16.40;99.90;;;;;;5067106;28;20041;-67
2023/08/09 07:42:10;;;;;;;2.70;0.70;;;16.50;99.90;;;;;;5066006;28;20280;-67
2023/08/09 07:44:35;;;;;;;2.03;0.80;;;16.50;99.90;;;;;;5038615;28;20044;-67
2023/08/09 07:47:01;;;;;;;1.65;0.68;;;16.60;99.90;;;;;;5051053;28;20044;-68
2023/08/09 07:49:27;;;;;;;2.65;0.73;;;16.70;99.90;;;;;;5062853;28;20494;-67
2023/08/09 07:51:52;;;;;;;2.63;0.60;;;16.70;99.90;;;;;;5045416;28;20080;-67
2023/08/09 07:54:18;;;;;;;2.33;0.60;;;16.70;99.90;;;;;;5048003;28;20036;-67
2023/08/09 07:56:44;;;;;;;1.63;0.80;;;16.80;99.90;;;;;;5025583;28;20380;-67
2023/08/09 07:59:09;;;;;;;3.20;0.50;;;16.80;99.90;;;;;;5053106;28;20206;-67
2023/08/09 08:01:35;;;;;;;0.90;0.50;;;16.90;99.90;;;;;;5048875;28;20388;-67
2023/08/09 08:04:01;;;;;;;3.38;0.85;;;17.00;99.90;;;;;;5049899;28;20044;-68
2023/08/09 08:06:27;;;;;;;2.78;0.90;;;17.10;99.90;;;;;;5045082;28;20502;-67
2023/08/09 08:08:54;;;;;;;2.53;0.57;;;17.20;99.90;;;;;;5050683;28;20037;-68
2023/08/09 08:11:19;;;;;;;;;;;17.20;99.90;;;;;;5068964;28;20052;-67
2023/08/09 08:13:45;;;;;;;2.78;0.50;;;17.30;99.90;;;;;;5042955;28;21970;-68
2023/08/09 08:16:10;;;;;;;2.10;0.70;;;17.30;99.90;;;;;;5054303;28;20113;-67
2023/08/09 08:18:36;;;;;;;3.00;0.80;;;17.40;99.90;;;;;;5043080;28;20518;-68
2023/08/09 08:21:03;;;;;;;1.67;0.60;;;17.40;99.90;;;;;;5058419;28;20460;-67
2023/08/09 08:23:30;;;;;;;2.20;0.45;;;17.50;99.90;;;;;;5066301;28;20052;-67
2023/08/09 08:25:56;;;;;;;1.40;0.52;;;17.60;99.90;;;;;;5070143;28;20486;-67
2023/08/09 08:28:22;;;;;;;3.45;0.90;;;17.60;99.90;;;;;;5049723;28;20414;-68
2023/08/09 08:30:48;;;;;;;1.25;0.55;;;17.60;99.90;;;;;;5044548;28;20098;-67
2023/08/09 08:33:13;;;;;;;3.10;0.95;;;17.70;99.90;;;;;;5049311;28;20036;-68
2023/08/09 08:35:43;;;;;;;1.35;0.60;;;17.80;99.90;;;;;;5031571;28;20048;-67
2023/08/09 08:38:09;;;;;;;2.40;1.00;;;17.80;99.90;;;;;;5048235;28;20474;-70
2023/08/09 08:40:35;;;;;;;2.38;0.70;;;17.80;99.90;;;;;;5036871;28;20048;-67
2023/08/09 08:43:01;;;;;;;2.40;0.90;;;17.90;99.90;;;;;;5063986;28;20483;-67
2023/08/09 08:45:27;;;;;;;3.33;0.70;;;18.00;99.90;;;;;;5062658;28;20041;-67
2023/08/09 08:47:53;;;;;;;2.08;0.38;;;18.00;99.90;;;;;;5044238;28;20043;-68
2023/08/09 08:50:19;;;;;;;1.73;0.60;;;18.10;99.90;;;;;;5043916;28;20123;-67
2023/08/09 08:52:46;;;;;;;3.42;0.52;;;18.10;99.90;;;;;;5057426;28;20040;-67
2023/08/09 08:55:13;;;;;;;1.83;0.65;;;18.20;99.90;;;;;;5050258;28;20123;-67
2023/08/09 08:57:40;;;;;;;1.88;0.50;;;18.20;99.90;;;;;;5063326;28;20032;-67
2023/08/09 09:00:08;;;;;;;3.08;0.50;;;18.20;99.90;;;;;;5045560;28;20045;-68
2023/08/09 09:02:41;;;;;;;2.00;0.47;;;18.20;99.90;;;;;;5065805;28;20089;-67
2023/08/09 09:05:07;;;;;;;3.13;0.70;;;18.20;99.90;;;;;;5065875;28;22214;-68
2023/08/09 09:07:33;;;;;;;5.15;0.93;;;18.20;99.90;;;;;;5048722;28;20052;-68
2023/08/09 09:10:00;;;;;;;2.03;0.50;;;18.40;99.90;;;;;;5047983;28;20084;-67
2023/08/09 09:12:26;;;;;;;4.10;0.63;;;18.50;99.90;;;;;;5044257;28;20044;-67
2023/08/09 09:14:52;;;;;;;;;;;18.50;99.90;;;;;;5062904;28;20520;-68
2023/08/09 09:17:19;;;;;;;1.85;0.73;;;18.60;99.90;;;;;;5029122;28;19920;-68
2023/08/09 09:19:45;;;;;;;1.92;0.40;;;18.60;99.90;;;;;;5058829;28;20282;-68
2023/08/09 09:22:29;;;;;;;1.17;0.60;;;18.70;99.90;;;;;;5049306;28;20045;-68
2023/08/09 09:24:59;;;;;;;1.10;0.57;;;18.70;99.90;;;;;;5039139;28;20400;-68
2023/08/09 09:27:30;;;;;;;1.50;0.47;;;18.70;99.90;;;;;;5032011;28;20467;-68
2023/08/09 09:30:11;;;;;;;2.35;1.05;;;18.80;99.90;;;;;;5059974;28;20045;-68
2023/08/09 09:32:40;;;;;;;1.80;0.73;;;18.80;99.90;;;;;;5063604;28;20380;-68
2023/08/09 09:35:08;;;;;;;0.88;0.50;;;18.80;99.90;;;;;;5045444;28;20045;-68
2023/08/09 09:37:35;;;;;;;2.00;0.55;;;18.90;99.90;;;;;;5041129;28;20117;-68
2023/08/09 09:40:01;;;;;;;2.08;0.50;;;19.00;99.90;;;;;;5036754;28;20080;-67
2023/08/09 09:42:34;;;;;;;1.80;0.55;;;19.20;99.90;;;;;;5064375;28;20469;-68
2023/08/09 09:45:04;;;;;;;2.05;0.50;;;19.30;99.90;;;;;;5043307;28;20295;-68
2023/08/09 09:47:33;;;;;;;1.30;0.45;;;19.30;99.90;;;;;;5030859;28;20052;-68
2023/08/09 09:49:59;;;;;;;3.03;0.60;;;19.30;99.90;;;;;;5063173;28;20036;-68
2023/08/09 09:52:28;;;;;;;1.27;0.57;;;19.30;99.90;;;;;;5043317;28;20097;-68
2023/08/09 09:54:56;;;;;;;1.90;0.70;;;19.20;99.90;;;;;;5044673;28;20119;-68
2023/08/09 09:57:21;;;;;;;2.28;0.95;;;19.20;99.90;;;;;;5032940;22;20176;-69
2023/08/09 09:59:47;;;;;;;3.97;0.68;;;19.20;99.90;;;;;;5007465;28;20124;-68
2023/08/09 10:02:15;;;;;;;1.45;0.60;;;19.20;99.90;;;;;;4990031;28;20045;-69
2023/08/09 10:04:48;;;;;;;1.48;0.55;;;19.20;99.90;;;;;;5078702;27;20438;-69
2023/08/09 10:07:14;;;;;;;2.33;0.50;;;19.30;99.90;;;;;;5062789;28;20117;-69
2023/08/09 10:09:41;;;;;;;3.65;0.70;;;19.30;99.90;;;;;;5050825;28;20067;-69
2023/08/09 10:12:08;;;;;;;1.35;0.60;;;19.30;99.90;;;;;;5053607;28;20116;-72
2023/08/09 10:14:35;;;;;;;0.82;0.40;;;19.30;99.90;;;;;;5064230;28;20044;-72
2023/08/09 10:17:02;;;;;;;3.13;0.80;;;19.20;99.90;;;;;;5068859;28;20486;-69
2023/08/09 10:19:29;;;;;;;2.05;0.80;;;19.20;99.90;;;;;;5029731;28;20044;-69
2023/08/09 10:21:55;;;;;;;3.85;0.80;;;19.20;99.90;;;;;;5064746;28;20045;-70
2023/08/09 10:24:21;;;;;;;1.25;0.40;;;19.20;99.90;;;;;;5054276;28;20442;-68
2023/08/09 10:26:53;;;;;;;1.73;0.50;;;19.30;99.90;;;;;;5069570;28;20618;-69
2023/08/09 10:29:21;;;;;;;1.90;0.55;;;19.40;99.90;;;;;;5057411;28;20115;-72
2023/08/09 10:31:57;;;;;;;0.93;0.50;;;19.40;99.90;;;;;;5049532;28;20041;-71
2023/08/09 10:34:48;;;;;;;3.72;0.70;;;19.50;99.90;;;;;;5065922;28;20059;-71
2023/08/09 10:37:24;;;;;;;1.30;0.73;;;19.50;99.90;;;;;;5050642;28;20040;-70
2023/08/09 10:40:15;;;;;;;2.53;0.55;;;19.50;99.90;;;;;;5063283;28;20045;-70
2023/08/09 10:42:47;;;;;;;1.35;0.63;;;19.60;99.90;;;;;;5055106;28;20122;-70
2023/08/09 10:45:14;;;;;;;0.55;0.30;;;19.70;99.90;;;;;;5065689;28;20037;-71
2023/08/09 10:47:41;;;;;;;3.00;0.70;;;19.70;99.90;;;;;;5072339;28;20491;-71
2023/08/09 10:50:10;;;;;;;3.72;0.70;;;19.80;99.90;;;;;;5065807;28;20039;-70
2023/08/09 10:52:48;;;;;;;2.42;0.70;;;19.70;99.90;;;;;;5051635;28;20086;-70
2023/08/09 10:55:25;;;;;;;1.85;0.75;;;19.70;99.90;;;;;;5059983;28;20064;-70
2023/08/09 10:57:53;;;;;;;1.30;0.55;;;19.70;99.90;;;;;;5057207;28;20110;-70
2023/08/09 11:00:22;;;;;;;1.15;0.50;;;19.80;99.90;;;;;;5039761;28;20059;-70
2023/08/09 11:02:48;;;;;;;1.85;1.13;;;19.80;99.90;;;;;;5055481;28;20079;-70
2023/08/09 11:05:15;;;;;;;3.97;0.88;;;19.80;99.90;;;;;;5067689;28;20074;-71
2023/08/09 11:07:48;;;;;;;1.20;0.50;;;19.80;99.90;;;;;;5067323;28;20041;-70
2023/08/09 11:10:15;;;;;;;2.33;0.65;;;19.80;99.90;;;;;;5060734;28;20029;-70
2023/08/09 11:12:44;;;;;;;2.65;0.47;;;19.90;99.90;;;;;;5070960;28;20052;-70
2023/08/09 11:15:13;;;;;;;1.95;0.77;;;20.10;99.90;;;;;;5063414;28;20394;-70
2023/08/09 11:17:49;;;;;;;2.55;0.70;;;20.20;99.90;;;;;;5035573;28;20098;-70
2023/08/09 11:20:15;;;;;;;1.53;0.60;;;20.30;99.90;;;;;;5049352;28;20044;-70
2023/08/09 11:22:58;;;;;;;1.38;0.75;;;20.30;99.90;;;;;;5050128;28;20045;-70
2023/08/09 11:25:26;;;;;;;3.38;0.60;;;20.20;99.90;;;;;;5049777;28;20091;-70
2023/08/09 11:27:57;;;;;;;4.30;0.90;;;20.30;99.90;;;;;;5051856;28;20036;-70
2023/08/09 11:30:23;;;;;;;3.33;0.80;;;20.40;99.90;;;;;;5048661;28;20098;-70
2023/08/09 11:33:04;;;;;;;1.52;0.68;;;20.60;99.90;;;;;;5041103;28;20060;-70
2023/08/09 11:35:43;;;;;;;3.35;0.80;;;20.80;99.90;;;;;;5046898;28;20049;-70
2023/08/09 11:38:11;;;;;;;2.08;0.80;;;21.00;99.90;;;;;;5043688;28;20045;-70
2023/08/09 11:40:45;;;;;;;1.35;0.70;;;21.20;99.90;;;;;;5042874;28;20045;-70
2023/08/09 11:43:16;;;;;;;0.95;0.40;;;21.10;99.90;;;;;;5037750;28;20042;-70
2023/08/09 11:45:50;;;;;;;3.20;0.80;;;20.80;99.90;;;;;;5049525;28;20515;-70
2023/08/09 11:48:32;;;;;;;1.73;0.52;;;20.70;99.90;;;;;;5052308;28;20040;-70
2023/08/09 11:51:17;;;;;;;2.22;0.88;;;20.40;99.90;;;;;;5045911;28;20401;-71
2023/08/09 11:53:45;;;;;;;2.10;0.70;;;20.30;99.90;;;;;;5030203;28;20064;-70
2023/08/09 11:56:15;;;;;;;2.55;0.80;;;20.20;99.90;;;;;;5044681;28;20045;-71
2023/08/09 11:58:46;;;;;;;4.05;0.60;;;20.30;99.90;;;;;;5047562;28;20055;-70
2023/08/09 12:01:13;;;;;;;1.38;0.70;;;20.50;99.90;;;;;;5056733;28;20051;-71
2023/08/09 12:03:40;;;;;;;2.50;0.60;;;20.50;99.90;;;;;;5041465;28;20482;-70
2023/08/09 12:06:05;;;;;;;1.65;0.63;;;20.60;99.90;;;;;;5056199;28;20060;-71
2023/08/09 12:08:40;;;;;;;2.13;0.90;;;20.60;99.90;;;;;;5041484;28;20029;-70
2023/08/09 12:11:06;;;;;;;3.00;0.60;;;20.60;99.90;;;;;;5041740;28;20383;-70
2023/08/09 12:13:32;;;;;;;2.72;0.60;;;20.50;99.90;;;;;;5048503;28;20048;-70
2023/08/09 12:16:00;;;;;;;4.28;0.55;;;20.30;99.90;;;;;;5056847;28;20066;-70
2023/08/09 12:18:26;;;;;;;2.53;0.73;;;20.20;99.90;;;;;;5025142;28;20156;-71
2023/08/09 12:20:54;;;;;;;3.72;0.80;;;20.20;99.90;;;;;;5042266;28;20044;-71
2023/08/09 12:23:19;;;;;;;1.90;0.60;;;20.30;99.90;;;;;;5046077;28;20056;-70
2023/08/09 12:25:45;;;;;;;5.20;0.60;;;20.40;99.90;;;;;;5046634;28;20029;-70
2023/08/09 12:28:11;;;;;;;1.80;0.70;;;20.50;99.90;;;;;;5043462;28;20060;-70
2023/08/09 12:30:37;;;;;;;;;;;20.70;99.90;;;;;;5059045;28;20375;-75
2023/08/09 12:33:03;;;;;;;1.35;0.50;;;20.80;99.90;;;;;;5032166;28;19924;-74
2023/08/09 12:35:32;;;;;;;2.17;0.45;;;21.00;99.90;;;;;;5046872;28;20053;-76
2023/08/09 12:37:58;;;;;;;3.53;0.60;;;21.10;99.90;;;;;;5036159;28;20045;-70
2023/08/09 12:40:24;;;;;;;1.20;0.40;;;21.20;99.90;;;;;;5048507;28;20116;-71
2023/08/09 12:42:51;;;;;;;2.15;0.70;;;21.20;99.90;;;;;;5049458;28;20131;-79
2023/08/09 12:45:16;;;;;;;3.33;0.60;;;21.20;99.90;;;;;;5042638;28;20106;-70
2023/08/09 12:47:42;;;;;;;2.10;0.63;;;21.30;99.90;;;;;;5049920;28;20033;-70
2023/08/09 12:50:08;;;;;;;2.88;0.75;;;21.50;99.90;;;;;;5050717;28;20510;-70
2023/08/09 12:52:34;;;;;;;1.95;0.57;;;21.70;99.90;;;;;;5057146;28;20035;-70